Time;durP1;ratioP1;P1;durP2;ratioP2;P2;SDS_P1;SDS_P2;PMS_P1;PMS_P2;Temp;Humidity;BMP_temperature;BMP_pressure;BME280_temperature;BME280_humidity;BME280_pressure;Samples;Min_cycle;Max_cycle;Signal;HPM_P1;HPM_P2
2022/03/28 00:02:11;;;;;;;24.52;12.93;;;;;;;6.66;75.92;102643.94;5071554;28;20020;-76
2022/03/28 00:04:37;;;;;;;27.77;12.98;;;;;;;6.63;76.19;102646.63;5069117;28;20365;-76
2022/03/28 00:07:02;;;;;;;21.77;12.63;;;;;;;6.60;75.74;102651.97;5068662;28;20024;-75
2022/03/28 00:09:28;;;;;;;23.90;12.68;;;;;;;6.55;75.79;102643.38;5070309;28;20028;-75
2022/03/28 00:11:54;;;;;;;25.00;13.18;;;;;;;6.54;76.37;102641.69;5069949;28;20404;-76
2022/03/28 00:14:20;;;;;;;25.20;13.43;;;;;;;6.49;76.52;102623.50;5069362;28;20460;-75
2022/03/28 00:16:45;;;;;;;23.50;13.18;;;;;;;6.48;76.42;102637.47;5069533;28;20078;-76
2022/03/28 00:19:11;;;;;;;25.95;12.73;;;;;;;6.44;76.17;102629.75;5068676;28;20048;-76
2022/03/28 00:21:36;;;;;;;24.05;13.05;;;;;;;6.37;76.33;102622.97;5069306;28;20054;-75
2022/03/28 00:24:02;;;;;;;23.20;13.10;;;;;;;6.35;76.48;102622.16;5085363;28;20119;-76
2022/03/28 00:26:27;;;;;;;23.20;12.85;;;;;;;6.28;77.06;102619.72;5069923;28;20093;-75
2022/03/28 00:28:53;;;;;;;28.90;13.10;;;;;;;6.25;77.39;102622.41;5069164;28;20028;-75
2022/03/28 00:31:18;;;;;;;22.42;13.15;;;;;;;6.21;77.12;102612.94;5069664;28;20020;-75
2022/03/28 00:33:44;;;;;;;26.58;13.25;;;;;;;6.17;77.38;102613.94;5067275;28;20143;-76
2022/03/28 00:36:09;;;;;;;25.63;12.57;;;;;;;6.12;77.49;102602.75;5069457;28;20024;-75
2022/03/28 00:38:34;;;;;;;25.65;13.02;;;;;;;6.09;77.66;102602.84;5053064;28;20033;-75
2022/03/28 00:41:00;;;;;;;22.75;12.90;;;;;;;6.04;77.75;102601.25;5052628;28;20031;-75
2022/03/28 00:43:26;;;;;;;23.65;12.75;;;;;;;6.02;77.56;102592.59;5067788;28;20029;-75
2022/03/28 00:45:52;;;;;;;23.27;12.18;;;;;;;5.97;77.25;102588.31;5068314;28;20035;-76
2022/03/28 00:48:17;;;;;;;21.17;12.65;;;;;;;5.95;78.04;102594.50;5067833;28;20028;-75
2022/03/28 00:50:43;;;;;;;23.23;12.95;;;;;;;5.89;78.27;102587.69;5068475;28;20070;-76
2022/03/28 00:53:12;;;;;;;23.20;12.23;;;;;;;5.86;78.13;102594.69;5067175;28;20024;-76
2022/03/28 00:55:38;;;;;;;24.67;12.40;;;;;;;5.83;78.13;102592.19;5066331;28;20119;-75
2022/03/28 00:58:03;;;;;;;25.02;12.82;;;;;;;5.79;78.15;102591.41;5068208;28;20099;-76
2022/03/28 01:00:29;;;;;;;22.25;12.00;;;;;;;5.78;78.13;102581.84;5068655;28;20123;-76
2022/03/28 01:02:55;;;;;;;24.58;12.45;;;;;;;5.76;78.08;102588.88;5070222;28;20020;-76
2022/03/28 01:05:20;;;;;;;25.52;12.25;;;;;;;5.72;78.61;102575.94;5068128;28;20400;-76
2022/03/28 01:07:46;;;;;;;21.17;12.57;;;;;;;5.68;78.50;102574.31;5083868;28;20024;-76
2022/03/28 01:10:12;;;;;;;22.38;12.40;;;;;;;5.66;78.65;102569.97;5067790;28;20496;-76
2022/03/28 01:12:42;;;;;;;25.27;12.98;;;;;;;5.61;79.07;102566.63;5068255;28;20039;-75
2022/03/28 01:15:08;;;;;;;24.67;12.80;;;;;;;5.56;78.88;102565.88;5068179;28;20452;-76
2022/03/28 01:20:18;;;;;;;23.70;12.20;;;;;;;5.50;79.54;102565.16;5068493;28;20043;-75
2022/03/28 01:22:43;;;;;;;24.60;11.90;;;;;;;5.47;79.10;102555.66;5068988;28;20024;-76
2022/03/28 01:25:08;;;;;;;22.67;12.85;;;;;;;5.46;79.82;102559.16;5067156;28;20020;-76
2022/03/28 01:27:37;;;;;;;25.30;12.40;;;;;;;5.43;79.40;102547.94;5069189;28;20029;-76
2022/03/28 01:30:07;;;;;;;28.83;12.75;;;;;;;5.40;79.57;102553.25;5067026;28;20058;-76
2022/03/28 01:32:32;;;;;;;19.42;11.50;;;;;;;5.34;79.88;102549.91;5067807;28;20032;-76
2022/03/28 01:34:58;;;;;;;19.55;11.90;;;;;;;5.32;79.32;102550.84;5069200;28;20102;-76
2022/03/28 01:37:23;;;;;;;23.67;12.82;;;;;;;5.26;79.97;102541.41;5079510;28;20021;-76
2022/03/28 01:39:49;;;;;;;27.55;12.82;;;;;;;5.25;79.69;102539.69;5051463;28;20029;-75
2022/03/28 01:42:14;;;;;;;27.13;12.13;;;;;;;5.24;79.88;102537.13;5067483;28;20459;-76
2022/03/28 01:44:39;;;;;;;22.38;12.70;;;;;;;5.22;80.48;102536.31;5087926;28;20047;-75
2022/03/28 01:47:05;;;;;;;22.00;11.70;;;;;;;5.18;80.44;102537.25;5072323;28;20392;-76
2022/03/28 01:49:31;;;;;;;20.63;12.15;;;;;;;5.16;80.56;102549.47;5072091;28;20495;-75
2022/03/28 01:51:56;;;;;;;24.67;12.45;;;;;;;5.09;80.94;102542.69;5052300;28;20245;-76
2022/03/28 01:54:21;;;;;;;28.92;12.32;;;;;;;5.08;80.31;102546.19;5051493;28;20025;-76
2022/03/28 01:56:47;;;;;;;18.90;12.20;;;;;;;5.04;80.46;102538.44;5051852;28;20025;-75
2022/03/28 01:59:12;;;;;;;23.55;12.93;;;;;;;5.03;80.48;102548.91;5051105;28;20029;-76
2022/03/28 02:01:38;;;;;;;22.65;11.82;;;;;;;5.00;80.66;102542.03;5059439;28;20027;-76
2022/03/28 02:04:04;;;;;;;19.98;12.20;;;;;;;5.00;81.10;102535.94;5090130;28;20047;-78
2022/03/28 02:06:32;;;;;;;26.25;11.60;;;;;;;4.99;81.00;102531.63;5089479;28;20012;-77
2022/03/28 02:08:58;;;;;;;25.80;11.70;;;;;;;4.95;80.95;102536.06;5092681;28;20028;-77
2022/03/28 02:11:23;;;;;;;22.10;11.93;;;;;;;4.96;81.21;102536.91;5092319;28;20478;-77
2022/03/28 02:13:48;;;;;;;24.70;11.88;;;;;;;4.91;81.25;102533.56;5090211;28;20034;-78
2022/03/28 02:16:14;;;;;;;28.02;12.90;;;;;;;4.87;81.37;102531.94;5091748;28;20028;-78
2022/03/28 02:18:39;;;;;;;26.10;12.52;;;;;;;4.82;81.65;102531.19;5092065;28;20031;-77
2022/03/28 02:21:05;;;;;;;27.55;13.25;;;;;;;4.80;81.49;102533.78;5091535;28;20024;-77
2022/03/28 02:23:30;;;;;;;22.63;12.85;;;;;;;4.80;81.52;102520.75;5091080;28;20024;-77
2022/03/28 02:25:56;;;;;;;24.80;12.40;;;;;;;4.76;81.77;102513.91;5090982;28;20043;-78
2022/03/28 02:28:22;;;;;;;24.13;12.63;;;;;;;4.77;81.37;102517.34;5091391;28;20024;-78
2022/03/28 02:30:47;;;;;;;27.58;13.27;;;;;;;4.71;82.19;102515.75;5090541;28;20069;-77
2022/03/28 02:33:12;;;;;;;26.80;13.07;;;;;;;4.72;82.37;102512.25;5092021;28;20048;-78
2022/03/28 02:35:37;;;;;;;28.15;13.00;;;;;;;4.69;81.77;102510.56;5092253;28;20035;-78
2022/03/28 02:38:03;;;;;;;25.52;12.52;;;;;;;4.66;82.21;102509.78;5080538;28;20052;-78
2022/03/28 02:40:29;;;;;;;25.10;13.00;;;;;;;4.67;82.55;102498.47;5072150;28;20029;-77
2022/03/28 02:42:58;;;;;;;24.33;12.82;;;;;;;4.64;82.37;102495.94;5052517;28;20025;-77
2022/03/28 02:45:28;;;;;;;27.35;12.90;;;;;;;4.62;82.54;102493.38;5052136;28;20064;-77
2022/03/28 02:47:53;;;;;;;23.10;13.25;;;;;;;4.61;81.91;102494.25;5065880;28;20024;-78
2022/03/28 02:50:19;;;;;;;23.38;11.15;;;;;;;4.57;82.65;102496.97;5051844;28;20028;-77
2022/03/28 02:52:44;;;;;;;22.50;12.35;;;;;;;4.53;82.41;102492.72;5052098;28;20246;-78
2022/03/28 02:55:09;;;;;;;22.55;12.25;;;;;;;4.48;82.48;102487.63;5051652;28;20063;-78
2022/03/28 02:57:36;;;;;;;27.75;12.40;;;;;;;4.45;82.88;102484.22;5050685;28;20031;-76
2022/03/28 03:00:04;;;;;;;25.63;12.52;;;;;;;4.43;83.02;102479.03;5050189;28;20020;-75
2022/03/28 03:02:29;;;;;;;21.85;12.45;;;;;;;4.40;83.09;102479.97;5073023;28;20021;-76
2022/03/28 03:04:54;;;;;;;21.85;12.20;;;;;;;4.38;82.40;102476.50;5071586;28;20487;-75
2022/03/28 03:07:19;;;;;;;23.77;12.05;;;;;;;4.37;82.49;102473.94;5069834;28;20907;-76
2022/03/28 03:09:45;;;;;;;24.38;13.00;;;;;;;4.34;82.76;102474.88;5070277;28;20017;-76
2022/03/28 03:12:10;;;;;;;25.67;13.30;;;;;;;4.33;82.96;102472.28;5070907;28;20090;-76
2022/03/28 03:14:36;;;;;;;27.05;12.80;;;;;;;4.30;83.17;102469.75;5070979;28;20020;-77
2022/03/28 03:17:02;;;;;;;27.27;12.40;;;;;;;4.29;83.16;102471.50;5069974;28;20056;-78
2022/03/28 03:19:28;;;;;;;27.58;12.77;;;;;;;4.27;83.10;102465.47;5071405;28;20059;-78
2022/03/28 03:21:53;;;;;;;25.08;12.45;;;;;;;4.25;83.33;102459.44;5069403;28;20019;-78
2022/03/28 03:24:18;;;;;;;25.35;13.40;;;;;;;4.23;83.60;102471.66;5070125;28;20027;-77
2022/03/28 03:26:44;;;;;;;22.60;12.95;;;;;;;4.19;83.41;102464.78;5070606;28;20029;-78
2022/03/28 03:29:09;;;;;;;25.48;13.15;;;;;;;4.13;83.64;102462.31;5070563;28;20476;-79
2022/03/28 03:31:34;;;;;;;25.60;12.60;;;;;;;4.13;83.66;102457.09;5070098;28;20068;-78
2022/03/28 03:34:03;;;;;;;21.02;12.38;;;;;;;4.14;83.83;102458.81;5070439;28;20526;-77
2022/03/28 03:36:28;;;;;;;26.35;12.55;;;;;;;4.13;83.06;102457.09;5070761;28;20063;-77
2022/03/28 03:38:54;;;;;;;23.73;11.88;;;;;;;4.09;83.61;102455.47;5068027;28;20048;-78
2022/03/28 03:41:20;;;;;;;26.83;12.68;;;;;;;4.10;84.00;102454.56;5061988;28;20341;-78
2022/03/28 03:43:45;;;;;;;26.25;13.25;;;;;;;4.06;83.79;102455.53;5049446;28;20435;-77
2022/03/28 03:46:11;;;;;;;23.40;12.48;;;;;;;4.07;83.36;102449.44;5065393;28;20593;-76
2022/03/28 03:48:37;;;;;;;24.60;12.57;;;;;;;4.07;84.48;102449.44;5049528;28;20021;-77
2022/03/28 03:51:02;;;;;;;22.00;12.40;;;;;;;4.01;83.92;102440.00;5050563;28;20435;-77
2022/03/28 03:53:28;;;;;;;30.33;13.82;;;;;;;4.03;84.24;102437.38;5049952;28;20032;-77
2022/03/28 03:55:53;;;;;;;24.95;12.75;;;;;;;3.99;84.15;102433.94;5049823;28;20033;-77
2022/03/28 03:58:19;;;;;;;27.35;13.25;;;;;;;3.99;84.46;102427.88;5050372;28;20058;-77
2022/03/28 04:00:44;;;;;;;37.42;13.73;;;;;;;3.96;84.53;102435.75;5050869;28;20025;-78
2022/03/28 04:03:09;;;;;;;30.27;14.15;;;;;;;3.94;84.49;102432.31;5071882;28;20052;-78
2022/03/28 04:05:37;;;;;;;31.75;13.48;;;;;;;3.88;84.79;102432.47;5067760;28;20082;-78
2022/03/28 04:08:06;;;;;;;33.30;14.48;;;;;;;3.87;84.89;102430.75;5068746;28;20428;-77
2022/03/28 04:10:32;;;;;;;29.75;12.70;;;;;;;3.84;85.48;102425.59;5070500;28;20036;-77
2022/03/28 04:12:57;;;;;;;27.75;13.98;;;;;;;3.82;84.58;102424.78;5069695;28;20024;-78
2022/03/28 04:15:23;;;;;;;29.20;13.50;;;;;;;3.85;84.78;102422.09;5070668;28;20028;-77
2022/03/28 04:17:48;;;;;;;29.60;12.52;;;;;;;3.82;84.65;102416.97;5070118;28;20032;-78
2022/03/28 04:20:15;;;;;;;26.73;13.10;;;;;;;3.81;85.19;102420.47;5069527;28;20017;-78
2022/03/28 04:22:42;;;;;;;27.95;12.88;;;;;;;3.77;85.05;102420.53;5068177;28;20023;-78
2022/03/28 04:25:09;;;;;;;26.63;12.05;;;;;;;3.75;85.40;102417.09;5069574;28;20039;-78
2022/03/28 04:27:36;;;;;;;29.10;12.60;;;;;;;3.73;84.65;102412.81;5069779;28;20036;-79
2022/03/28 04:30:04;;;;;;;23.02;12.02;;;;;;;3.69;85.46;102422.44;5067947;28;20060;-77
2022/03/28 04:32:29;;;;;;;26.15;13.10;;;;;;;3.65;85.68;102422.53;5069760;28;20032;-78
2022/03/28 04:34:54;;;;;;;23.60;12.57;;;;;;;3.64;84.83;102429.47;5068556;28;20067;-77
2022/03/28 04:37:20;;;;;;;32.45;13.55;;;;;;;3.60;85.22;102417.41;5084846;28;21032;-76
2022/03/28 04:39:47;;;;;;;30.17;12.50;;;;;;;3.59;85.36;102420.03;5068967;28;20504;-76
2022/03/28 04:42:13;;;;;;;28.27;13.13;;;;;;;3.56;85.57;102415.72;5052411;28;20025;-76
2022/03/28 04:44:38;;;;;;;33.53;13.32;;;;;;;3.55;85.34;102419.22;5049058;28;20443;-76
2022/03/28 04:47:03;;;;;;;25.85;12.10;;;;;;;3.51;84.86;102412.38;5048588;28;20021;-76
2022/03/28 04:49:29;;;;;;;27.65;13.40;;;;;;;3.54;85.44;102414.91;5049450;28;20083;-75
2022/03/28 04:51:54;;;;;;;25.80;12.00;;;;;;;3.55;85.18;102418.38;5047586;28;20082;-77
2022/03/28 04:54:19;;;;;;;27.05;12.43;;;;;;;3.49;85.52;102423.69;5048393;28;20334;-78
2022/03/28 04:56:45;;;;;;;27.25;12.48;;;;;;;3.47;85.54;102426.31;5048830;28;20457;-78
2022/03/28 04:59:11;;;;;;;29.55;12.90;;;;;;;3.45;85.60;102418.56;5048935;28;20067;-77
2022/03/28 05:01:37;;;;;;;28.00;12.98;;;;;;;3.42;85.76;102423.81;5048693;28;20032;-77
2022/03/28 05:04:02;;;;;;;28.95;12.63;;;;;;;3.40;85.81;102427.34;5086878;28;20038;-78
2022/03/28 05:06:27;;;;;;;31.75;12.68;;;;;;;3.38;85.66;102426.50;5090164;28;20016;-77
2022/03/28 05:08:53;;;;;;;29.13;12.65;;;;;;;3.35;85.80;102423.97;5087857;28;20115;-77
2022/03/28 05:11:22;;;;;;;31.95;12.93;;;;;;;3.35;86.11;102416.16;5070560;28;20028;-78
2022/03/28 05:13:50;;;;;;;33.55;12.75;;;;;;;3.34;86.78;102419.66;5089856;28;20020;-75
2022/03/28 05:16:16;;;;;;;37.90;13.32;;;;;;;3.33;86.18;102415.34;5089269;28;20024;-76
2022/03/28 05:18:42;;;;;;;27.63;13.35;;;;;;;3.30;86.01;102412.78;5088240;28;20123;-75
2022/03/28 05:21:07;;;;;;;31.98;13.18;;;;;;;3.25;86.36;102415.47;5090061;28;20111;-76
2022/03/28 05:23:33;;;;;;;30.45;12.52;;;;;;;3.25;86.04;102415.47;5088160;28;20036;-75
2022/03/28 05:25:58;;;;;;;32.30;12.75;;;;;;;3.23;85.93;102414.66;5090161;28;20024;-78
2022/03/28 05:28:23;;;;;;;27.15;12.45;;;;;;;3.21;86.33;102418.16;5088599;28;20052;-77
2022/03/28 05:30:49;;;;;;;36.88;13.05;;;;;;;3.21;86.88;102412.97;5076066;28;20028;-78
2022/03/28 05:33:14;;;;;;;34.22;12.52;;;;;;;3.20;86.25;102411.22;5067453;28;20381;-76
2022/03/28 05:35:43;;;;;;;32.58;12.90;;;;;;;3.19;86.57;102420.75;5069058;28;20500;-78
2022/03/28 05:38:09;;;;;;;35.45;12.77;;;;;;;3.19;86.41;102414.72;5055079;28;20017;-76
2022/03/28 05:40:34;;;;;;;32.22;13.35;;;;;;;3.17;86.71;102411.28;5048766;28;20109;-77
2022/03/28 05:43:03;;;;;;;34.53;13.05;;;;;;;3.15;86.78;102409.56;5067854;28;20792;-78
2022/03/28 05:45:28;;;;;;;30.85;13.15;;;;;;;3.14;86.79;102413.06;5068040;28;20056;-77
2022/03/28 05:47:54;;;;;;;33.72;13.52;;;;;;;3.15;86.73;102406.09;5067875;28;20063;-76
2022/03/28 05:50:19;;;;;;;27.23;13.25;;;;;;;3.14;87.13;102401.78;5065825;28;20119;-76
2022/03/28 05:52:45;;;;;;;31.40;13.45;;;;;;;3.15;86.88;102403.50;5067856;28;20078;-76
2022/03/28 05:55:10;;;;;;;27.05;13.00;;;;;;;3.12;86.72;102394.03;5067776;28;20070;-76
2022/03/28 05:57:36;;;;;;;33.83;13.68;;;;;;;3.14;87.20;102396.59;5067370;28;20082;-76
2022/03/28 06:00:05;;;;;;;34.17;13.82;;;;;;;3.20;87.24;102396.47;5067825;28;20028;-75
2022/03/28 06:02:31;;;;;;;27.80;14.23;;;;;;;3.22;87.08;102386.06;5069649;28;20036;-75
2022/03/28 06:04:56;;;;;;;32.28;14.07;;;;;;;3.28;88.04;102393.75;5065824;28;20440;-76
2022/03/28 06:07:22;;;;;;;33.67;13.00;;;;;;;3.28;87.96;102396.34;5066267;28;20480;-75
2022/03/28 06:09:47;;;;;;;31.65;13.65;;;;;;;3.27;87.69;102405.03;5083185;28;20031;-78
2022/03/28 06:12:13;;;;;;;31.10;14.23;;;;;;;3.28;88.12;102401.56;5065642;28;20392;-79
2022/03/28 06:14:38;;;;;;;34.08;13.48;;;;;;;3.28;89.02;102393.75;5066211;28;20086;-76
2022/03/28 06:17:03;;;;;;;33.42;14.13;;;;;;;3.29;88.94;102398.94;5066390;28;20032;-76
2022/03/28 06:19:29;;;;;;;33.00;13.15;;;;;;;3.33;88.10;102397.13;5067471;28;20035;-78
2022/03/28 06:21:54;;;;;;;33.33;13.30;;;;;;;3.37;88.80;102398.78;5070747;28;20029;-76
2022/03/28 06:24:19;;;;;;;35.35;14.27;;;;;;;3.38;89.58;102397.88;5050443;28;20287;-76
2022/03/28 06:26:45;;;;;;;36.47;13.32;;;;;;;3.40;89.31;102396.13;5051277;28;20021;-77
2022/03/28 06:29:10;;;;;;;34.60;14.27;;;;;;;3.43;89.44;102391.72;5051841;28;20024;-76
2022/03/28 06:31:36;;;;;;;30.45;13.27;;;;;;;3.48;89.71;102394.22;5051979;28;20481;-76
2022/03/28 06:34:02;;;;;;;37.47;13.90;;;;;;;3.51;89.18;102386.34;5049394;28;20132;-75
2022/03/28 06:36:29;;;;;;;34.05;14.02;;;;;;;3.57;89.77;102394.03;5050947;28;20511;-76
2022/03/28 06:38:55;;;;;;;39.25;14.02;;;;;;;3.63;89.71;102395.69;5070416;28;20024;-76
2022/03/28 06:41:21;;;;;;;40.53;14.88;;;;;;;3.70;90.84;102403.31;5062435;28;20240;-76
2022/03/28 06:43:47;;;;;;;38.00;13.95;;;;;;;3.77;90.94;102402.31;5051483;28;20105;-76
2022/03/28 06:46:13;;;;;;;47.33;14.68;;;;;;;3.85;90.39;102403.88;5051694;28;20099;-76
2022/03/28 06:48:39;;;;;;;41.75;14.75;;;;;;;3.93;91.62;102404.56;5050735;28;20497;-76
2022/03/28 06:51:06;;;;;;;44.15;14.43;;;;;;;3.99;90.78;102404.44;5051355;28;20028;-76
2022/03/28 06:53:31;;;;;;;43.30;13.82;;;;;;;4.07;91.37;102394.75;5050725;28;20112;-76
2022/03/28 06:55:57;;;;;;;40.03;13.40;;;;;;;4.11;90.35;102398.13;5050707;28;20639;-76
2022/03/28 06:58:22;;;;;;;48.15;15.32;;;;;;;4.20;91.69;102383.16;5050436;28;20080;-76
2022/03/28 07:00:48;;;;;;;37.15;15.10;;;;;;;4.26;91.53;102377.78;5048544;28;20029;-76
2022/03/28 07:03:13;;;;;;;38.65;14.82;;;;;;;4.32;90.84;102377.63;5063078;28;20024;-76
2022/03/28 07:05:39;;;;;;;38.15;14.63;;;;;;;4.41;90.62;102374.00;5070347;28;20040;-78
2022/03/28 07:08:04;;;;;;;39.47;15.10;;;;;;;4.52;91.31;102378.94;5069850;28;20436;-78
2022/03/28 07:10:29;;;;;;;44.83;15.95;;;;;;;4.60;90.97;102379.59;5070615;28;20040;-75
2022/03/28 07:12:55;;;;;;;44.58;16.70;;;;;;;4.72;92.33;102371.47;5070198;28;20070;-76
2022/03/28 07:15:21;;;;;;;45.22;15.63;;;;;;;4.82;92.41;102369.50;5068252;28;20265;-76
2022/03/28 07:17:56;;;;;;;41.95;15.10;;;;;;;4.92;91.92;102374.44;5070023;28;20033;-75
2022/03/28 07:20:27;;;;;;;45.85;15.07;;;;;;;5.02;91.82;102364.63;5085443;28;20055;-76
2022/03/28 07:22:54;;;;;;;45.15;16.45;;;;;;;5.15;92.66;102357.31;5069352;28;20123;-75
2022/03/28 07:25:20;;;;;;;43.05;16.75;;;;;;;5.23;92.28;102361.44;5070195;28;20028;-76
2022/03/28 07:27:46;;;;;;;47.97;18.13;;;;;;;5.36;92.52;102356.72;5070091;28;20062;-76
2022/03/28 07:30:13;;;;;;;42.85;17.35;;;;;;;5.48;93.07;102359.00;5068022;28;20021;-75
2022/03/28 07:32:39;;;;;;;52.92;18.10;;;;;;;5.59;92.71;102354.31;5068581;28;20097;-75
2022/03/28 07:35:05;;;;;;;45.95;17.17;;;;;;;5.71;91.71;102349.66;5067617;28;20048;-77
2022/03/28 07:37:32;;;;;;;53.08;18.65;;;;;;;5.86;91.98;102351.78;5061384;28;20052;-77
2022/03/28 07:39:57;;;;;;;55.33;18.50;;;;;;;6.02;92.36;102341.78;5065953;28;20031;-77
2022/03/28 07:42:23;;;;;;;45.97;19.02;;;;;;;6.15;91.78;102343.94;5081753;28;20025;-77
2022/03/28 07:44:48;;;;;;;46.15;18.42;;;;;;;6.26;90.89;102333.16;5069819;28;20021;-76
2022/03/28 07:47:14;;;;;;;44.22;17.77;;;;;;;6.39;90.24;102323.16;5054087;28;20440;-78
2022/03/28 07:49:40;;;;;;;44.47;17.95;;;;;;;6.50;90.25;102321.91;5050363;28;20056;-78
2022/03/28 07:52:07;;;;;;;48.28;18.13;;;;;;;6.63;89.59;102322.34;5049830;28;20476;-78
2022/03/28 07:54:32;;;;;;;38.80;18.27;;;;;;;6.76;89.53;102334.09;5066729;28;20028;-78
2022/03/28 07:56:58;;;;;;;50.33;19.33;;;;;;;6.85;88.77;102339.03;5069745;28;20388;-77
2022/03/28 07:59:24;;;;;;;51.63;19.35;;;;;;;6.96;88.59;102330.78;5069005;28;20028;-77
2022/03/28 08:01:51;;;;;;;41.25;17.73;;;;;;;7.09;87.48;102323.34;5069178;28;20021;-77
2022/03/28 08:04:17;;;;;;;43.55;19.10;;;;;;;7.20;87.14;102326.44;5086297;28;20024;-77
2022/03/28 08:06:42;;;;;;;42.95;19.17;;;;;;;7.26;86.54;102330.63;5068676;28;20021;-78
2022/03/28 08:09:08;;;;;;;45.53;18.98;;;;;;;7.40;86.29;102334.44;5070073;28;20430;-78
2022/03/28 08:11:33;;;;;;;44.95;18.85;;;;;;;7.51;86.29;102324.41;5069545;28;20096;-77
2022/03/28 08:14:00;;;;;;;51.88;19.15;;;;;;;7.60;85.39;102324.97;5068931;28;20028;-78
2022/03/28 08:16:26;;;;;;;46.42;18.58;;;;;;;7.72;84.94;102312.28;5068086;28;20020;-77
2022/03/28 08:18:51;;;;;;;39.83;17.65;;;;;;;7.87;84.90;102308.19;5068510;28;20537;-78
2022/03/28 08:21:17;;;;;;;46.78;18.58;;;;;;;8.01;84.95;102308.53;5068915;28;20111;-77
2022/03/28 08:23:42;;;;;;;38.28;17.70;;;;;;;8.10;84.46;102305.53;5069047;28;20051;-77
2022/03/28 08:26:08;;;;;;;45.55;18.73;;;;;;;8.26;84.06;102297.03;5068204;28;20365;-77
2022/03/28 08:28:34;;;;;;;43.45;18.77;;;;;;;8.35;83.50;102301.94;5067898;28;20028;-77
2022/03/28 08:30:59;;;;;;;42.63;19.17;;;;;;;8.49;82.86;102299.59;5068936;28;20021;-77
2022/03/28 08:33:25;;;;;;;40.17;18.92;;;;;;;8.63;82.48;102294.63;5066589;28;20053;-75
2022/03/28 08:35:50;;;;;;;45.65;19.35;;;;;;;8.71;81.92;102287.25;5068921;28;20485;-77
2022/03/28 08:38:15;;;;;;;44.13;18.45;;;;;;;8.87;82.35;102290.09;5055071;28;20064;-78
2022/03/28 08:40:42;;;;;;;45.63;19.42;;;;;;;9.04;81.63;102287.56;5049605;28;20071;-78
2022/03/28 08:43:08;;;;;;;44.65;18.90;;;;;;;9.18;80.85;102294.81;5067304;28;20107;-79
2022/03/28 08:45:41;;;;;;;42.42;19.38;;;;;;;9.25;79.76;102292.78;5067765;28;20320;-78
2022/03/28 08:48:11;;;;;;;41.80;20.00;;;;;;;9.35;79.52;102291.44;5068647;28;20020;-78
2022/03/28 08:50:41;;;;;;;38.55;20.02;;;;;;;9.48;79.02;102289.09;5067867;28;20442;-78
2022/03/28 08:53:06;;;;;;;45.60;20.48;;;;;;;9.59;78.60;102285.03;5069051;28;20028;-78
2022/03/28 08:55:32;;;;;;;40.60;20.23;;;;;;;9.73;78.76;102276.53;5069774;28;20399;-78
2022/03/28 08:57:58;;;;;;;41.50;19.65;;;;;;;9.86;78.21;102277.63;5067901;28;20028;-78
2022/03/28 09:00:23;;;;;;;46.08;21.27;;;;;;;9.98;77.74;102282.28;5068954;28;20040;-78
2022/03/28 09:02:54;;;;;;;45.25;21.15;;;;;;;10.14;77.83;102279.78;5067657;28;20035;-78
2022/03/28 09:05:33;;;;;;;43.17;21.48;;;;;;;10.28;77.67;102279.13;5069472;28;20025;-78
2022/03/28 09:07:59;;;;;;;43.30;21.33;;;;;;;10.45;77.44;102284.41;5067356;28;20024;-78
2022/03/28 09:10:27;;;;;;;46.00;22.02;;;;;;;10.59;77.47;102279.28;5069396;28;20472;-78
2022/03/28 09:13:13;;;;;;;44.63;22.10;;;;;;;10.71;77.05;102272.53;5057750;28;20052;-79
2022/03/28 09:15:47;;;;;;;46.50;23.98;;;;;;;10.89;75.12;102273.38;5065739;28;20024;-78
2022/03/28 09:18:34;;;;;;;44.33;24.05;;;;;;;11.04;75.03;102272.56;5101245;28;20107;-76
2022/03/28 09:21:01;;;;;;;46.08;24.70;;;;;;;11.16;73.55;102269.28;5068057;28;20384;-76
2022/03/28 09:23:44;;;;;;;45.95;24.80;;;;;;;11.24;73.29;102272.38;5068145;28;20028;-77
2022/03/28 09:26:16;;;;;;;45.95;23.50;;;;;;;11.40;72.75;102274.16;5066938;28;20077;-77
2022/03/28 09:28:49;;;;;;;46.50;23.80;;;;;;;11.54;72.39;102269.81;5066401;28;20391;-77
2022/03/28 09:31:44;;;;;;;46.85;22.85;;;;;;;11.68;72.90;102266.44;5066898;28;20020;-76
2022/03/28 09:34:20;;;;;;;46.13;22.77;;;;;;;11.79;71.55;102263.22;5098335;28;20044;-76
2022/03/28 09:36:55;;;;;;;43.22;22.05;;;;;;;11.92;71.56;102269.50;5064919;28;20036;-77
2022/03/28 09:39:23;;;;;;;42.05;21.67;;;;;;;12.05;71.95;102248.56;5066541;28;20546;-76
2022/03/28 09:42:10;;;;;;;40.03;21.42;;;;;;;12.16;71.55;102251.44;5057115;28;20051;-76
2022/03/28 09:44:39;;;;;;;40.33;21.60;;;;;;;12.38;69.78;102251.00;5067754;28;20472;-76
2022/03/28 09:47:17;;;;;;;42.85;21.80;;;;;;;12.50;70.15;102250.31;5100563;28;20020;-76
2022/03/28 09:49:44;;;;;;;41.55;21.92;;;;;;;12.65;69.90;102245.88;5057728;28;20037;-76
2022/03/28 09:52:15;;;;;;;40.17;21.27;;;;;;;12.81;69.00;102238.75;5057454;28;20036;-76
2022/03/28 09:54:55;;;;;;;38.95;22.52;;;;;;;12.87;67.47;102235.72;5083407;28;20456;-76
2022/03/28 09:57:25;;;;;;;42.10;21.95;;;;;;;13.04;67.08;102235.53;5100326;28;20418;-77
2022/03/28 09:59:53;;;;;;;41.95;22.08;;;;;;;13.15;66.63;102230.41;5071772;28;20031;-76
2022/03/28 10:02:25;;;;;;;44.03;22.08;;;;;;;13.31;66.80;102218.94;5071347;28;20023;-76
2022/03/28 10:04:52;;;;;;;38.33;22.38;;;;;;;13.42;65.79;102219.09;5069402;28;20036;-77
2022/03/28 10:07:20;;;;;;;47.05;24.15;;;;;;;13.54;64.74;102223.56;5071471;28;20512;-77
2022/03/28 10:09:46;;;;;;;43.85;22.77;;;;;;;13.66;63.65;102225.44;5070295;28;20016;-77
2022/03/28 10:12:12;;;;;;;47.17;23.77;;;;;;;13.83;64.14;102223.50;5058949;28;20425;-77
2022/03/28 10:14:38;;;;;;;44.65;24.05;;;;;;;13.94;63.24;102221.81;5056114;28;20024;-77
2022/03/28 10:17:05;;;;;;;38.47;23.08;;;;;;;14.11;63.13;102223.38;5072068;28;20104;-76
2022/03/28 10:19:33;;;;;;;44.13;25.02;;;;;;;14.23;62.07;102217.25;5072027;28;20068;-77
2022/03/28 10:22:03;;;;;;;43.72;25.02;;;;;;;14.45;61.64;102216.69;5072246;28;20043;-76
2022/03/28 10:24:33;;;;;;;42.55;25.48;;;;;;;14.50;59.94;102216.38;5072142;28;20020;-77
2022/03/28 10:27:03;;;;;;;43.45;26.30;;;;;;;14.64;60.36;102209.16;5070820;28;20028;-76
2022/03/28 10:29:40;;;;;;;43.35;25.85;;;;;;;14.76;60.44;102202.13;5072345;28;20423;-77
2022/03/28 10:32:12;;;;;;;41.83;25.27;;;;;;;14.84;58.89;102202.47;5070194;28;20502;-77
2022/03/28 10:34:53;;;;;;;42.63;23.58;;;;;;;14.97;58.14;102195.34;5071399;28;20147;-77
2022/03/28 10:37:52;;;;;;;40.28;24.35;;;;;;;15.14;59.58;102185.34;5064518;28;20025;-77
2022/03/28 10:40:23;;;;;;;40.17;23.83;;;;;;;15.37;57.03;102179.22;5071195;28;20502;-77
2022/03/28 10:43:10;;;;;;;38.80;23.27;;;;;;;15.45;58.13;102171.53;5052279;28;20039;-77
2022/03/28 10:45:38;;;;;;;39.00;24.88;;;;;;;15.60;54.59;102165.13;5070990;28;20107;-76
2022/03/28 10:48:06;;;;;;;39.28;23.75;;;;;;;15.60;54.15;102165.13;5070867;28;20491;-77
2022/03/28 10:50:34;;;;;;;39.20;23.65;;;;;;;15.87;55.35;102167.53;5058107;28;20074;-77
2022/03/28 10:53:05;;;;;;;37.38;23.48;;;;;;;16.06;55.73;102169.69;5068228;28;20395;-77
2022/03/28 10:55:47;;;;;;;43.00;25.47;;;;;;;16.12;54.04;102158.59;5071190;28;20030;-77
2022/03/28 10:58:23;;;;;;;38.13;23.80;;;;;;;16.20;53.38;102158.84;5069267;28;20052;-77
2022/03/28 11:01:11;;;;;;;40.97;23.75;;;;;;;16.34;54.10;102154.25;5070291;28;20032;-77
2022/03/28 11:03:37;;;;;;;37.92;22.63;;;;;;;16.35;51.85;102161.25;5070604;28;20115;-78
2022/03/28 11:06:04;;;;;;;33.10;22.13;;;;;;;16.40;51.48;102149.31;5070147;28;20035;-77
2022/03/28 11:08:38;;;;;;;41.40;23.67;;;;;;;16.54;51.60;102157.06;5070072;28;20095;-77
2022/03/28 11:11:20;;;;;;;38.92;22.63;;;;;;;16.74;53.11;102147.56;5069958;28;20071;-77
2022/03/28 11:14:08;;;;;;;38.55;22.83;;;;;;;16.91;54.02;102149.72;5068672;28;20494;-77
2022/03/28 11:16:54;;;;;;;34.47;22.27;;;;;;;16.99;53.20;102134.97;5070904;28;20038;-77
2022/03/28 11:19:32;;;;;;;32.35;21.02;;;;;;;17.17;52.07;102138.78;5070518;28;20020;-77